EGHH/BOH METAR and TAF weather

Enter ICAO airport designator
Station Type Date Time Source
EGHH METAR 2018/10/22 15:50 UTC NOAA

EGHH 221550Z 01008KT CAVOK 13/04 Q1037


Station Type Date Time Source
EGHH Decoded METAR 2018/10/22 15:50 UTC NOAA

Bournemouth Airport, United Kingdom (EGHH) 50-47N 001-50W 0M
Oct 22, 2018 - 11:50 AM EDT / 2018.10.22 1550 UTC
Wind: from the N (010 degrees) at 9 MPH (8 KT):0
Visibility: greater than 7 mile(s):0
Temperature: 55 F (13 C)
Dew Point: 39 F (4 C)
Relative Humidity: 54%
Pressure (altimeter): 30.62 in. Hg (1037 hPa)
ob: EGHH 221550Z 01008KT CAVOK 13/04 Q1037
cycle: 16

Station Type Date Time Source
EGHH TAF 2013/12/01 21:21 UTC NOAA

TAF TAF EGHH 010016Z 3021/0106 CNL


Example: see airport list